Time;durP1;ratioP1;P1;durP2;ratioP2;P2;SDS_P1;SDS_P2;PMS_P1;PMS_P2;Temp;Humidity;BMP_temperature;BMP_pressure;BME280_temperature;BME280_humidity;BME280_pressure;Samples;Min_cycle;Max_cycle;Signal;HPM_P1;HPM_P2
2024/04/15 00:00:38;;;;;;;6.90;1.95;;;;;;;;;;5508137;25;19993;-64
2024/04/15 00:03:04;;;;;;;7.53;2.40;;;;;;;;;;5470139;25;20002;-64
2024/04/15 00:05:31;;;;;;;11.73;2.78;;;;;;;;;;5506710;25;19997;-64
2024/04/15 00:07:57;;;;;;;6.70;2.17;;;;;;;;;;5472264;25;19998;-64
2024/04/15 00:10:24;;;;;;;12.40;2.80;;;;;;;;;;5508150;25;20385;-64
2024/04/15 00:12:51;;;;;;;11.68;3.38;;;;;;;;;;5480596;26;20065;-64
2024/04/15 00:15:17;;;;;;;19.33;4.20;;;;;;;;;;5507860;25;20005;-64
2024/04/15 00:17:44;;;;;;;11.50;3.00;;;;;;;;;;5472432;25;19994;-62
2024/04/15 00:20:10;;;;;;;13.93;3.22;;;;;;;;;;5508242;25;20074;-63
2024/04/15 00:22:36;;;;;;;14.75;3.33;;;;;;;;;;5470611;26;20009;-64
2024/04/15 00:25:03;;;;;;;19.33;3.65;;;;;;;;;;5499140;25;20073;-63
2024/04/15 00:27:29;;;;;;;15.35;3.10;;;;;;;;;;5496899;25;20073;-63
2024/04/15 00:29:56;;;;;;;8.15;2.80;;;;;;;;;;5507155;25;20125;-63
2024/04/15 00:32:22;;;;;;;14.80;3.75;;;;;;;;;;5509152;25;20021;-64
2024/04/15 00:34:50;;;;;;;14.63;2.80;;;;;;;;;;5508086;25;19994;-64
2024/04/15 00:37:17;;;;;;;17.77;4.20;;;;;;;;;;5501393;25;20036;-64
2024/04/15 00:39:43;;;;;;;11.90;2.80;;;;;;;;;;5515615;25;20124;-64
2024/04/15 00:42:09;;;;;;;14.20;3.38;;;;;;;;;;5506768;25;19994;-64
2024/04/15 00:44:37;;;;;;;13.15;3.45;;;;;;;;;;5509379;25;20009;-64
2024/04/15 00:47:03;;;;;;;16.38;3.13;;;;;;;;;;5505605;25;20042;-64
2024/04/15 00:49:32;;;;;;;11.93;3.28;;;;;;;;;;5508581;25;20277;-64
2024/04/15 00:51:59;;;;;;;15.55;3.15;;;;;;;;;;5506452;25;20013;-64
2024/04/15 00:54:27;;;;;;;17.38;3.47;;;;;;;;;;5509410;25;19993;-64
2024/04/15 00:56:53;;;;;;;14.32;3.45;;;;;;;;;;5509665;25;20002;-63
2024/04/15 00:59:19;;;;;;;14.57;3.55;;;;;;;;;;5513928;25;20132;-64
2024/04/15 01:01:46;;;;;;;12.25;3.80;;;;;;;;;;5511230;25;20054;-64
2024/04/15 01:04:12;;;;;;;9.32;2.92;;;;;;;;;;5511978;25;20097;-64
2024/04/15 01:06:40;;;;;;;13.73;3.70;;;;;;;;;;5508175;25;20002;-63
2024/04/15 01:09:07;;;;;;;13.43;3.30;;;;;;;;;;5509979;25;19994;-63
2024/04/15 01:11:34;;;;;;;14.57;4.22;;;;;;;;;;5503144;25;19994;-63
2024/04/15 01:14:01;;;;;;;15.95;3.33;;;;;;;;;;5503834;25;19994;-64
2024/04/15 01:16:35;;;;;;;15.48;3.45;;;;;;;;;;5503564;25;19994;-64
2024/04/15 01:19:01;;;;;;;24.88;3.92;;;;;;;;;;5508454;25;20008;-64
2024/04/15 01:21:27;;;;;;;18.45;3.60;;;;;;;;;;5504402;25;19993;-64
2024/04/15 01:23:54;;;;;;;21.67;3.85;;;;;;;;;;5507154;25;20049;-62
2024/04/15 01:26:20;;;;;;;14.52;3.83;;;;;;;;;;5503283;25;20460;-63
2024/04/15 01:28:46;;;;;;;14.75;3.15;;;;;;;;;;5513918;25;20001;-63
2024/04/15 01:31:13;;;;;;;17.23;5.68;;;;;;;;;;5503074;25;20013;-63
2024/04/15 01:33:39;;;;;;;19.88;3.38;;;;;;;;;;5501424;25;20012;-63
2024/04/15 01:36:05;;;;;;;26.63;3.13;;;;;;;;;;5501099;25;20156;-63
2024/04/15 01:38:32;;;;;;;17.05;3.95;;;;;;;;;;5507028;25;19994;-63
2024/04/15 01:41:01;;;;;;;13.63;3.75;;;;;;;;;;5470310;25;20008;-63
2024/04/15 01:43:27;;;;;;;16.90;3.75;;;;;;;;;;5498783;25;19997;-63
2024/04/15 01:45:54;;;;;;;17.73;3.65;;;;;;;;;;5500815;25;20046;-63
2024/04/15 01:48:21;;;;;;;19.10;3.28;;;;;;;;;;5501670;25;19993;-63
2024/04/15 01:50:47;;;;;;;18.58;3.60;;;;;;;;;;5501263;25;20041;-63
2024/04/15 01:53:13;;;;;;;18.15;3.42;;;;;;;;;;5503467;25;20344;-63
2024/04/15 01:55:40;;;;;;;13.55;3.50;;;;;;;;;;5505415;25;20542;-64
2024/04/15 01:58:06;;;;;;;10.68;3.33;;;;;;;;;;5500900;25;20017;-64
2024/04/15 02:00:32;;;;;;;17.58;4.07;;;;;;;;;;5502117;25;20039;-63
2024/04/15 02:02:59;;;;;;;18.13;5.03;;;;;;;;;;5497756;25;19994;-63
2024/04/15 02:05:25;;;;;;;15.07;3.25;;;;;;;;;;5503549;25;20008;-62
2024/04/15 02:07:54;;;;;;;10.57;3.38;;;;;;;;;;5499624;25;20070;-62
2024/04/15 02:10:20;;;;;;;15.60;2.90;;;;;;;;;;5498223;25;20032;-62
2024/04/15 02:12:47;;;;;;;14.57;3.50;;;;;;;;;;5497708;25;20347;-63
2024/04/15 02:15:15;;;;;;;15.73;3.42;;;;;;;;;;5466276;25;20005;-63
2024/04/15 02:17:41;;;;;;;19.05;4.38;;;;;;;;;;5495711;25;20008;-64
2024/04/15 02:20:11;;;;;;;15.43;3.50;;;;;;;;;;5495975;25;20370;-63
2024/04/15 02:22:37;;;;;;;19.05;4.45;;;;;;;;;;5523557;25;20001;-64
2024/04/15 02:25:04;;;;;;;13.73;2.88;;;;;;;;;;5494390;25;20013;-63
2024/04/15 02:27:35;;;;;;;12.43;3.53;;;;;;;;;;5497519;25;20009;-63
2024/04/15 02:30:03;;;;;;;12.93;3.13;;;;;;;;;;5495336;25;22671;-63
2024/04/15 02:32:30;;;;;;;15.70;3.58;;;;;;;;;;5498824;25;20012;-63
2024/04/15 02:34:57;;;;;;;13.45;2.90;;;;;;;;;;5508353;25;19993;-63
2024/04/15 02:37:23;;;;;;;17.40;3.38;;;;;;;;;;5496955;25;20008;-63
2024/04/15 02:39:49;;;;;;;14.40;3.63;;;;;;;;;;5500326;25;20417;-63
2024/04/15 02:42:16;;;;;;;13.18;3.20;;;;;;;;;;5504264;25;20002;-64
2024/04/15 02:44:42;;;;;;;11.48;2.83;;;;;;;;;;5511300;25;19992;-64
2024/04/15 02:47:10;;;;;;;18.95;3.65;;;;;;;;;;5498390;25;20020;-64
2024/04/15 02:49:37;;;;;;;12.95;3.40;;;;;;;;;;5501307;25;20117;-64
2024/04/15 02:52:03;;;;;;;10.73;3.30;;;;;;;;;;5495459;25;20418;-64
2024/04/15 02:54:29;;;;;;;14.57;3.58;;;;;;;;;;5499355;25;20105;-64
2024/04/15 02:56:56;;;;;;;21.02;4.43;;;;;;;;;;5504971;25;20433;-64
2024/04/15 02:59:22;;;;;;;12.55;3.20;;;;;;;;;;5528168;25;19998;-64
2024/04/15 03:01:48;;;;;;;14.43;3.72;;;;;;;;;;5499852;25;20005;-64
2024/04/15 03:04:15;;;;;;;11.95;3.33;;;;;;;;;;5464006;25;20035;-64
2024/04/15 03:07:01;;;;;;;12.63;4.05;;;;;;;;;;5476198;25;20002;-63
2024/04/15 03:09:27;;;;;;;14.60;4.35;;;;;;;;;;5493803;25;20021;-63
2024/04/15 03:11:53;;;;;;;15.80;3.25;;;;;;;;;;5494564;25;19998;-64
2024/04/15 03:14:20;;;;;;;11.88;3.15;;;;;;;;;;5496590;25;20007;-64
2024/04/15 03:17:06;;;;;;;14.32;3.05;;;;;;;;;;5477071;25;20468;-64
2024/04/15 03:19:33;;;;;;;12.13;3.65;;;;;;;;;;5506445;25;20011;-64
2024/04/15 03:21:59;;;;;;;10.52;3.13;;;;;;;;;;5479143;25;20070;-64
2024/04/15 03:24:27;;;;;;;17.83;4.68;;;;;;;;;;5484171;25;20105;-64
2024/04/15 03:26:54;;;;;;;15.27;3.83;;;;;;;;;;5500477;25;20317;-63
2024/04/15 03:29:21;;;;;;;15.13;3.15;;;;;;;;;;5503682;25;20113;-64
2024/04/15 03:31:50;;;;;;;13.50;3.95;;;;;;;;;;5498577;25;20018;-63
2024/04/15 03:34:17;;;;;;;12.20;3.92;;;;;;;;;;5505490;25;20463;-63
2024/04/15 03:36:43;;;;;;;9.27;3.15;;;;;;;;;;5501318;25;20371;-63
2024/04/15 03:39:09;;;;;;;9.90;2.97;;;;;;;;;;5501459;25;20058;-63
2024/04/15 03:41:37;;;;;;;10.23;3.75;;;;;;;;;;5497122;25;20155;-62
2024/04/15 03:44:03;;;;;;;13.18;3.20;;;;;;;;;;5507974;25;20088;-63
2024/04/15 03:46:30;;;;;;;11.50;3.58;;;;;;;;;;5501262;25;19994;-64
2024/04/15 03:48:57;;;;;;;11.35;3.25;;;;;;;;;;5491931;25;20009;-64
2024/04/15 03:51:43;;;;;;;12.52;3.88;;;;;;;;;;5486946;25;20069;-63
2024/04/15 03:54:09;;;;;;;12.88;3.53;;;;;;;;;;5505221;25;20066;-64
2024/04/15 03:56:35;;;;;;;9.93;3.25;;;;;;;;;;5504353;25;19994;-64
2024/04/15 03:59:02;;;;;;;13.93;3.53;;;;;;;;;;5510250;25;20021;-63
2024/04/15 04:01:29;;;;;;;10.18;2.67;;;;;;;;;;5509959;25;20317;-64
2024/04/15 04:04:08;;;;;;;12.43;2.92;;;;;;;;;;5507764;25;20008;-64
2024/04/15 04:06:35;;;;;;;9.50;2.90;;;;;;;;;;5513051;25;19994;-64
2024/04/15 04:09:02;;;;;;;10.40;3.05;;;;;;;;;;5503586;25;20003;-66
2024/04/15 04:11:28;;;;;;;16.23;4.78;;;;;;;;;;5505602;25;20070;-64
2024/04/15 04:13:55;;;;;;;12.80;3.15;;;;;;;;;;5502386;25;19998;-64
2024/04/15 04:16:23;;;;;;;7.95;3.10;;;;;;;;;;5478939;25;19994;-64
2024/04/15 04:18:49;;;;;;;8.68;3.15;;;;;;;;;;5504184;25;20002;-64
2024/04/15 04:21:36;;;;;;;11.85;2.85;;;;;;;;;;5478712;25;20012;-64
2024/04/15 04:24:02;;;;;;;9.30;3.38;;;;;;;;;;5467892;25;20063;-64
2024/04/15 04:26:28;;;;;;;12.18;3.08;;;;;;;;;;5503342;25;20771;-64
2024/04/15 04:28:56;;;;;;;11.68;4.13;;;;;;;;;;5467498;25;20012;-64
2024/04/15 04:31:22;;;;;;;17.70;4.00;;;;;;;;;;5507957;25;20005;-64
2024/04/15 04:33:49;;;;;;;9.57;3.05;;;;;;;;;;5474000;25;20406;-64
2024/04/15 04:36:17;;;;;;;11.55;3.17;;;;;;;;;;5503856;25;20016;-63
2024/04/15 04:38:43;;;;;;;12.48;3.22;;;;;;;;;;5499747;25;20005;-64
2024/04/15 04:41:09;;;;;;;13.60;3.72;;;;;;;;;;5505799;25;20054;-64
2024/04/15 04:43:36;;;;;;;10.52;3.53;;;;;;;;;;5504958;25;20004;-64
2024/04/15 04:46:09;;;;;;;14.02;3.10;;;;;;;;;;5484393;25;19993;-63
2024/04/15 04:48:35;;;;;;;15.23;4.85;;;;;;;;;;5505336;25;19994;-64
2024/04/15 04:51:07;;;;;;;21.15;4.95;;;;;;;;;;5511741;25;20021;-64
2024/04/15 04:53:33;;;;;;;15.55;4.75;;;;;;;;;;5510253;25;20016;-64
2024/04/15 04:56:06;;;;;;;9.18;3.30;;;;;;;;;;5510919;25;19993;-64
2024/04/15 04:58:33;;;;;;;10.85;3.97;;;;;;;;;;5502181;25;19993;-64
2024/04/15 05:01:07;;;;;;;12.52;3.83;;;;;;;;;;5506633;25;20009;-64
2024/04/15 05:03:34;;;;;;;12.48;3.67;;;;;;;;;;5509750;25;20009;-64
2024/04/15 05:06:04;;;;;;;12.52;4.20;;;;;;;;;;5506904;25;20125;-64
2024/04/15 05:08:30;;;;;;;12.13;3.45;;;;;;;;;;5511618;25;20033;-64
2024/04/15 05:10:56;;;;;;;13.60;3.80;;;;;;;;;;5485756;25;19994;-64
2024/04/15 05:13:23;;;;;;;13.05;4.45;;;;;;;;;;5511653;25;20419;-64
2024/04/15 05:15:49;;;;;;;8.98;3.83;;;;;;;;;;5510693;25;20036;-64
2024/04/15 05:18:15;;;;;;;13.73;4.15;;;;;;;;;;5509613;25;20013;-64
2024/04/15 05:20:42;;;;;;;13.63;4.53;;;;;;;;;;5509334;25;20350;-64
2024/04/15 05:23:08;;;;;;;14.57;4.40;;;;;;;;;;5504762;25;20019;-65
2024/04/15 05:25:35;;;;;;;15.77;4.55;;;;;;;;;;5512190;25;20126;-64
2024/04/15 05:28:02;;;;;;;13.98;4.78;;;;;;;;;;5502679;25;19993;-64
2024/04/15 05:30:28;;;;;;;14.23;4.20;;;;;;;;;;5508532;25;20004;-64
2024/04/15 05:32:54;;;;;;;14.85;5.47;;;;;;;;;;5507761;25;20185;-64
2024/04/15 05:35:21;;;;;;;12.77;4.28;;;;;;;;;;5500014;25;20411;-64
2024/04/15 05:37:47;;;;;;;14.85;5.20;;;;;;;;;;5502269;25;19993;-64
2024/04/15 05:40:13;;;;;;;18.20;6.07;;;;;;;;;;5503361;25;21851;-64
2024/04/15 05:42:39;;;;;;;17.88;5.13;;;;;;;;;;5504097;25;19994;-65
2024/04/15 05:45:06;;;;;;;14.88;5.50;;;;;;;;;;5474472;26;19995;-66
2024/04/15 05:47:33;;;;;;;18.45;5.57;;;;;;;;;;5470410;25;20414;-65
2024/04/15 05:49:59;;;;;;;21.48;6.38;;;;;;;;;;5513358;25;20008;-65
2024/04/15 05:52:27;;;;;;;22.60;6.75;;;;;;;;;;5503797;25;20015;-66
2024/04/15 05:54:53;;;;;;;18.95;6.38;;;;;;;;;;5499746;25;19997;-65
2024/04/15 05:57:19;;;;;;;18.95;7.38;;;;;;;;;;5497301;25;20065;-66
2024/04/15 05:59:47;;;;;;;33.10;9.00;;;;;;;;;;5503572;25;20338;-65
2024/04/15 06:02:14;;;;;;;18.17;7.53;;;;;;;;;;5507150;25;20089;-65
2024/04/15 06:04:40;;;;;;;26.70;7.82;;;;;;;;;;5509875;25;20004;-65
2024/04/15 06:07:06;;;;;;;22.33;8.32;;;;;;;;;;5510782;25;20023;-65
2024/04/15 06:09:36;;;;;;;23.17;8.70;;;;;;;;;;5507799;25;20321;-65
2024/04/15 06:12:02;;;;;;;20.42;6.97;;;;;;;;;;5498032;25;20320;-65
2024/04/15 06:14:29;;;;;;;18.95;6.28;;;;;;;;;;5501800;25;20046;-65
2024/04/15 06:16:55;;;;;;;20.55;5.93;;;;;;;;;;5496855;25;20451;-77
2024/04/15 06:19:21;;;;;;;14.07;4.97;;;;;;;;;;5460462;25;19998;-66
2024/04/15 06:21:48;;;;;;;19.60;5.53;;;;;;;;;;5530818;25;20393;-65
2024/04/15 06:24:14;;;;;;;21.08;4.90;;;;;;;;;;5509730;25;19993;-66
2024/04/15 06:26:41;;;;;;;15.60;4.10;;;;;;;;;;5498409;25;20010;-65
2024/04/15 06:29:07;;;;;;;14.00;3.50;;;;;;;;;;5499982;25;20026;-66
2024/04/15 06:31:33;;;;;;;9.43;2.72;;;;;;;;;;5509366;25;19998;-66
2024/04/15 06:34:00;;;;;;;10.38;3.05;;;;;;;;;;5502809;25;20066;-65
2024/04/15 06:36:27;;;;;;;16.98;3.65;;;;;;;;;;5509624;25;20009;-66
2024/04/15 06:38:54;;;;;;;15.15;4.45;;;;;;;;;;5510718;25;20017;-66
2024/04/15 06:41:20;;;;;;;13.18;2.65;;;;;;;;;;5510754;25;20462;-66
2024/04/15 06:43:47;;;;;;;13.43;2.72;;;;;;;;;;5513785;25;20068;-65
2024/04/15 06:46:13;;;;;;;13.77;2.47;;;;;;;;;;5471919;25;20493;-65
2024/04/15 06:48:41;;;;;;;17.02;4.40;;;;;;;;;;5500491;25;20036;-65
2024/04/15 06:51:07;;;;;;;10.50;3.20;;;;;;;;;;5501946;25;20310;-65
2024/04/15 06:53:34;;;;;;;13.23;2.63;;;;;;;;;;5477134;25;20035;-65
2024/04/15 06:56:01;;;;;;;10.93;2.55;;;;;;;;;;5504492;25;19994;-65
2024/04/15 06:58:28;;;;;;;29.63;5.10;;;;;;;;;;5460321;25;20453;-65
2024/04/15 07:00:56;;;;;;;15.73;2.40;;;;;;;;;;5502523;25;20069;-65
2024/04/15 07:03:23;;;;;;;15.63;2.35;;;;;;;;;;5506437;25;20001;-65
2024/04/15 07:05:49;;;;;;;9.45;2.38;;;;;;;;;;5502387;25;19995;-65
2024/04/15 07:08:16;;;;;;;14.80;2.83;;;;;;;;;;5506973;25;20033;-64
2024/04/15 07:10:42;;;;;;;20.02;4.85;;;;;;;;;;5505512;25;20020;-65
2024/04/15 07:13:09;;;;;;;13.35;2.67;;;;;;;;;;5501632;25;20009;-65
2024/04/15 07:15:35;;;;;;;13.48;4.68;;;;;;;;;;5491809;25;21249;-65
2024/04/15 07:18:01;;;;;;;15.73;2.90;;;;;;;;;;5497748;25;20010;-66
2024/04/15 07:20:28;;;;;;;18.60;2.63;;;;;;;;;;5516059;26;19993;-65
2024/04/15 07:22:54;;;;;;;16.95;4.30;;;;;;;;;;5506188;26;20005;-65
2024/04/15 07:25:20;;;;;;;13.27;2.53;;;;;;;;;;5516220;26;20013;-65
2024/04/15 07:27:47;;;;;;;17.92;3.47;;;;;;;;;;5515309;26;20006;-65
2024/04/15 07:30:13;;;;;;;18.77;3.70;;;;;;;;;;5496667;26;20140;-65
2024/04/15 07:32:39;;;;;;;15.43;2.63;;;;;;;;;;5516251;26;20005;-65
2024/04/15 07:35:06;;;;;;;22.83;2.90;;;;;;;;;;5517377;25;20001;-65
2024/04/15 07:37:32;;;;;;;10.60;2.80;;;;;;;;;;5518410;26;20008;-65
2024/04/15 07:39:58;;;;;;;17.80;3.10;;;;;;;;;;5514511;26;20001;-65
2024/04/15 07:42:25;;;;;;;10.35;3.03;;;;;;;;;;5518749;25;19998;-65
2024/04/15 07:44:51;;;;;;;16.60;2.83;;;;;;;;;;5504933;26;20097;-65
2024/04/15 07:47:19;;;;;;;12.13;2.75;;;;;;;;;;5511705;25;19998;-65
2024/04/15 07:49:46;;;;;;;14.32;2.63;;;;;;;;;;5496716;25;20477;-65
2024/04/15 07:52:12;;;;;;;9.95;2.38;;;;;;;;;;5504891;25;20466;-66
2024/04/15 07:54:40;;;;;;;12.13;2.45;;;;;;;;;;5490045;25;19997;-66
2024/04/15 07:57:08;;;;;;;11.25;2.50;;;;;;;;;;5508041;25;20314;-66
2024/04/15 07:59:34;;;;;;;14.32;2.78;;;;;;;;;;5514858;25;20147;-66
2024/04/15 08:02:01;;;;;;;13.32;2.45;;;;;;;;;;5493918;26;20460;-65
2024/04/15 08:04:28;;;;;;;12.88;2.67;;;;;;;;;;5509722;25;20081;-73
2024/04/15 08:06:54;;;;;;;14.82;2.20;;;;;;;;;;5505117;25;20005;-66
2024/04/15 08:09:20;;;;;;;14.07;3.15;;;;;;;;;;5503324;25;20713;-65
2024/04/15 08:11:47;;;;;;;12.45;2.13;;;;;;;;;;5507231;25;20017;-65
2024/04/15 08:14:13;;;;;;;12.35;2.47;;;;;;;;;;5509331;25;19993;-65
2024/04/15 08:16:39;;;;;;;8.15;1.63;;;;;;;;;;5499008;25;19994;-65
2024/04/15 08:19:06;;;;;;;8.45;1.80;;;;;;;;;;5528427;25;20096;-65
2024/04/15 08:21:32;;;;;;;6.72;1.85;;;;;;;;;;5518023;25;19993;-65
2024/04/15 08:23:58;;;;;;;16.98;1.90;;;;;;;;;;5501391;25;20005;-65
2024/04/15 08:26:25;;;;;;;9.25;2.00;;;;;;;;;;5507395;25;19993;-65
2024/04/15 08:28:51;;;;;;;9.10;1.80;;;;;;;;;;5511816;25;20069;-65
2024/04/15 08:31:17;;;;;;;6.90;1.30;;;;;;;;;;5507897;25;20045;-65
2024/04/15 08:33:44;;;;;;;10.73;1.65;;;;;;;;;;5501580;25;19994;-65
2024/04/15 08:36:12;;;;;;;8.38;1.60;;;;;;;;;;5500212;25;19993;-65
2024/04/15 08:38:44;;;;;;;14.38;3.47;;;;;;;;;;5506852;25;20493;-65
2024/04/15 08:41:15;;;;;;;14.23;2.15;;;;;;;;;;5508980;25;20326;-65
2024/04/15 08:43:42;;;;;;;9.80;2.90;;;;;;;;;;5508973;25;20050;-65
2024/04/15 08:46:09;;;;;;;13.93;3.22;;;;;;;;;;5508293;25;20074;-65
2024/04/15 08:48:37;;;;;;;12.40;2.08;;;;;;;;;;5502231;25;20279;-65
2024/04/15 08:51:03;;;;;;;8.98;1.65;;;;;;;;;;5506559;25;20350;-65
2024/04/15 08:53:30;;;;;;;21.17;2.28;;;;;;;;;;5509834;25;20329;-65
2024/04/15 08:55:57;;;;;;;6.97;1.70;;;;;;;;;;5507936;25;20009;-65
2024/04/15 08:58:24;;;;;;;5.72;1.45;;;;;;;;;;5511243;25;20004;-65
2024/04/15 09:00:50;;;;;;;9.85;1.58;;;;;;;;;;5506501;25;20394;-65
2024/04/15 09:03:16;;;;;;;8.35;1.60;;;;;;;;;;5506381;25;20544;-65
2024/04/15 09:05:44;;;;;;;9.98;2.10;;;;;;;;;;5508050;25;20017;-65
2024/04/15 09:08:10;;;;;;;10.77;1.63;;;;;;;;;;5507362;25;19993;-65
2024/04/15 09:10:36;;;;;;;8.55;1.30;;;;;;;;;;5488874;25;20039;-65
2024/04/15 09:13:03;;;;;;;13.23;2.03;;;;;;;;;;5505477;25;20007;-65
2024/04/15 09:15:29;;;;;;;12.98;2.60;;;;;;;;;;5495965;25;20005;-65
2024/04/15 09:17:55;;;;;;;10.20;1.92;;;;;;;;;;5500719;25;20170;-65
2024/04/15 09:20:22;;;;;;;12.30;2.10;;;;;;;;;;5504974;25;20024;-65
2024/04/15 09:22:48;;;;;;;13.32;2.95;;;;;;;;;;5502179;25;20009;-65
2024/04/15 09:25:15;;;;;;;8.30;1.80;;;;;;;;;;5479275;25;20036;-66
2024/04/15 09:27:41;;;;;;;8.27;1.55;;;;;;;;;;5512355;25;20001;-66
2024/04/15 09:30:09;;;;;;;8.30;1.40;;;;;;;;;;5514994;25;19994;-65
2024/04/15 09:32:36;;;;;;;14.43;2.47;;;;;;;;;;5513411;25;20382;-64
2024/04/15 09:35:03;;;;;;;10.27;1.75;;;;;;;;;;5503031;25;20089;-64
2024/04/15 09:37:31;;;;;;;14.02;2.20;;;;;;;;;;5514030;25;20425;-64
2024/04/15 09:39:58;;;;;;;11.35;2.58;;;;;;;;;;5497092;25;20420;-64
2024/04/15 09:42:24;;;;;;;8.68;1.80;;;;;;;;;;5506013;25;20020;-64
2024/04/15 09:44:51;;;;;;;6.90;1.80;;;;;;;;;;5505859;25;20001;-64
2024/04/15 09:47:18;;;;;;;10.65;2.17;;;;;;;;;;5506578;25;20073;-67
2024/04/15 09:49:46;;;;;;;7.63;1.63;;;;;;;;;;5507095;25;21296;-64
2024/04/15 09:52:18;;;;;;;12.32;2.85;;;;;;;;;;5501963;25;19993;-64
2024/04/15 09:54:46;;;;;;;9.70;1.90;;;;;;;;;;5504862;25;19994;-64
2024/04/15 09:57:15;;;;;;;11.15;2.35;;;;;;;;;;5505432;25;19998;-64
2024/04/15 09:59:44;;;;;;;11.20;2.15;;;;;;;;;;5507362;25;20445;-64
2024/04/15 10:02:18;;;;;;;9.65;1.75;;;;;;;;;;5503887;25;20318;-64
2024/04/15 10:04:46;;;;;;;;;;;;;;;;;;5510496;25;20005;-65
2024/04/15 10:07:12;;;;;;;11.75;2.22;;;;;;;;;;5496079;25;19965;-64
2024/04/15 10:09:39;;;;;;;7.32;2.42;;;;;;;;;;5500420;25;20066;-65
2024/04/15 10:12:06;;;;;;;10.63;3.15;;;;;;;;;;5522216;25;20457;-64
2024/04/15 10:14:32;;;;;;;13.63;3.28;;;;;;;;;;5496727;25;20448;-64
2024/04/15 10:16:58;;;;;;;10.13;3.78;;;;;;;;;;5503972;25;20334;-64
2024/04/15 10:19:26;;;;;;;11.32;2.83;;;;;;;;;;5505395;25;19994;-64
2024/04/15 10:21:53;;;;;;;9.50;2.78;;;;;;;;;;5548661;25;20043;-64
2024/04/15 10:24:22;;;;;;;13.25;3.60;;;;;;;;;;5504447;25;20065;-62
2024/04/15 10:26:48;;;;;;;14.52;2.70;;;;;;;;;;5505789;25;19994;-63
2024/04/15 10:29:18;;;;;;;7.00;2.70;;;;;;;;;;5504051;25;19994;-63
2024/04/15 10:31:50;;;;;;;11.90;3.40;;;;;;;;;;5504018;25;20016;-62
2024/04/15 10:34:16;;;;;;;14.07;4.20;;;;;;;;;;5499680;25;20021;-63
2024/04/15 10:36:43;;;;;;;16.75;4.75;;;;;;;;;;5468465;25;20368;-69
2024/04/15 10:39:15;;;;;;;10.80;4.03;;;;;;;;;;5496865;25;20031;-63
2024/04/15 10:41:43;;;;;;;17.60;3.95;;;;;;;;;;5502449;25;19995;-63
2024/04/15 10:44:09;;;;;;;8.73;3.40;;;;;;;;;;5504531;25;19993;-63
2024/04/15 10:46:36;;;;;;;16.80;4.75;;;;;;;;;;5511814;25;19993;-62
2024/04/15 10:49:04;;;;;;;13.27;4.50;;;;;;;;;;5487713;25;20054;-63
2024/04/15 10:51:30;;;;;;;16.70;4.68;;;;;;;;;;5495561;25;19994;-63
2024/04/15 10:53:57;;;;;;;9.55;3.10;;;;;;;;;;5497734;25;20001;-63
2024/04/15 10:56:23;;;;;;;13.73;3.47;;;;;;;;;;5493488;25;20000;-63
2024/04/15 10:58:50;;;;;;;11.07;2.85;;;;;;;;;;5517262;25;20303;-63
2024/04/15 11:01:16;;;;;;;5.03;2.10;;;;;;;;;;5513828;25;20008;-62
2024/04/15 11:03:43;;;;;;;8.10;2.22;;;;;;;;;;5509563;25;20021;-62
2024/04/15 11:06:10;;;;;;;7.93;1.98;;;;;;;;;;5507545;25;20445;-62
2024/04/15 11:08:36;;;;;;;10.05;1.88;;;;;;;;;;5507376;25;19993;-61
2024/04/15 11:11:03;;;;;;;10.27;2.50;;;;;;;;;;5504241;25;20009;-61
2024/04/15 11:13:30;;;;;;;14.95;2.65;;;;;;;;;;5499065;25;22850;-61
2024/04/15 11:15:56;;;;;;;6.65;2.10;;;;;;;;;;5496411;25;20005;-61
2024/04/15 11:18:23;;;;;;;7.28;2.03;;;;;;;;;;5464497;25;20096;-61
2024/04/15 11:20:58;;;;;;;8.68;3.05;;;;;;;;;;5506428;25;20278;-63
2024/04/15 11:23:25;;;;;;;6.88;2.42;;;;;;;;;;5500038;25;20129;-63
2024/04/15 11:25:52;;;;;;;9.80;2.83;;;;;;;;;;5503123;25;19997;-64
2024/04/15 11:28:19;;;;;;;6.22;2.88;;;;;;;;;;5501140;25;19998;-64
2024/04/15 11:30:46;;;;;;;12.13;3.63;;;;;;;;;;5495086;25;20013;-63
2024/04/15 11:33:13;;;;;;;13.30;3.63;;;;;;;;;;5502253;25;20046;-63
2024/04/15 11:35:46;;;;;;;12.05;3.28;;;;;;;;;;5500529;25;20012;-63
2024/04/15 11:38:13;;;;;;;16.60;4.82;;;;;;;;;;5470587;25;20482;-63
2024/04/15 11:40:39;;;;;;;14.02;3.42;;;;;;;;;;5497453;25;20013;-63
2024/04/15 11:43:05;;;;;;;9.52;3.97;;;;;;;;;;5499781;25;20090;-64
2024/04/15 11:45:32;;;;;;;10.60;3.22;;;;;;;;;;5535670;25;20453;-64
2024/04/15 11:47:58;;;;;;;7.97;2.75;;;;;;;;;;5510304;25;19993;-64
2024/04/15 11:50:25;;;;;;;12.63;3.58;;;;;;;;;;5506815;25;19993;-63
2024/04/15 11:52:51;;;;;;;5.85;2.13;;;;;;;;;;5499760;25;20033;-63
2024/04/15 11:55:18;;;;;;;15.25;3.10;;;;;;;;;;5500596;25;20000;-63
2024/04/15 11:57:45;;;;;;;14.88;3.05;;;;;;;;;;5501599;25;20013;-62
2024/04/15 12:00:13;;;;;;;7.07;2.55;;;;;;;;;;5499810;25;19998;-63
2024/04/15 12:02:40;;;;;;;8.05;2.90;;;;;;;;;;5495441;25;20450;-63
2024/04/15 12:05:06;;;;;;;16.98;4.18;;;;;;;;;;5473121;25;19993;-63
2024/04/15 12:07:33;;;;;;;15.23;5.40;;;;;;;;;;5502683;25;20031;-63
2024/04/15 12:10:01;;;;;;;19.38;5.38;;;;;;;;;;5501190;25;20125;-63
2024/04/15 12:12:27;;;;;;;14.23;7.05;;;;;;;;;;5502171;25;19994;-64
2024/04/15 12:14:53;;;;;;;16.88;7.53;;;;;;;;;;5506237;25;19995;-64
2024/04/15 12:17:20;;;;;;;19.50;6.88;;;;;;;;;;5498768;25;19998;-63
2024/04/15 12:19:46;;;;;;;17.83;8.43;;;;;;;;;;5500600;25;20415;-63
2024/04/15 12:22:12;;;;;;;18.10;6.60;;;;;;;;;;5497938;25;20031;-64
2024/04/15 12:24:39;;;;;;;7.32;3.97;;;;;;;;;;5500451;25;20009;-63
2024/04/15 12:27:05;;;;;;;19.30;6.60;;;;;;;;;;5494382;25;20341;-63
2024/04/15 12:29:32;;;;;;;14.00;6.53;;;;;;;;;;5505036;25;19993;-63
2024/04/15 12:31:58;;;;;;;10.73;3.15;;;;;;;;;;5504760;25;19993;-63
2024/04/15 12:34:25;;;;;;;8.32;4.10;;;;;;;;;;5502892;25;19994;-64
2024/04/15 12:36:51;;;;;;;3.97;1.80;;;;;;;;;;5503211;25;20001;-64
2024/04/15 12:39:17;;;;;;;7.63;2.58;;;;;;;;;;5506838;25;20139;-63
2024/04/15 12:41:44;;;;;;;8.18;2.55;;;;;;;;;;5503854;25;20020;-63
2024/04/15 12:44:10;;;;;;;10.18;3.50;;;;;;;;;;5476400;25;20632;-63
2024/04/15 12:46:37;;;;;;;9.07;3.72;;;;;;;;;;5503867;25;20446;-63
2024/04/15 12:49:07;;;;;;;14.52;6.07;;;;;;;;;;5501875;25;20687;-64
2024/04/15 12:51:34;;;;;;;22.73;8.77;;;;;;;;;;5505686;25;20097;-63
2024/04/15 12:54:00;;;;;;;19.98;9.02;;;;;;;;;;5504216;25;20082;-63
2024/04/15 12:56:26;;;;;;;17.00;8.75;;;;;;;;;;5507905;25;20001;-63
2024/04/15 12:58:53;;;;;;;13.25;7.57;;;;;;;;;;5508438;25;20366;-63
2024/04/15 13:01:20;;;;;;;17.60;7.60;;;;;;;;;;5500890;25;20044;-63
2024/04/15 13:03:46;;;;;;;15.23;7.55;;;;;;;;;;5505691;25;19993;-63
2024/04/15 13:06:13;;;;;;;18.02;7.50;;;;;;;;;;5508642;25;20002;-63
2024/04/15 13:08:39;;;;;;;5.13;1.73;;;;;;;;;;5504995;25;20073;-64
2024/04/15 13:11:08;;;;;;;4.32;1.05;;;;;;;;;;5506399;25;20058;-64
2024/04/15 13:13:35;;;;;;;2.72;0.70;;;;;;;;;;5507091;25;20008;-63
2024/04/15 13:16:02;;;;;;;12.93;1.23;;;;;;;;;;5500087;25;20022;-63
2024/04/15 13:18:28;;;;;;;6.50;0.80;;;;;;;;;;5500548;25;20713;-63
2024/04/15 13:20:55;;;;;;;11.95;1.88;;;;;;;;;;5517249;25;19993;-63
2024/04/15 13:23:22;;;;;;;10.73;1.60;;;;;;;;;;5508046;25;20001;-64
2024/04/15 13:25:48;;;;;;;10.15;1.15;;;;;;;;;;5513843;25;20308;-63
2024/04/15 13:28:14;;;;;;;7.65;1.30;;;;;;;;;;5507024;25;20278;-63
2024/04/15 13:30:41;;;;;;;16.27;2.28;;;;;;;;;;5509029;25;20005;-63
2024/04/15 13:33:08;;;;;;;17.80;1.60;;;;;;;;;;5498649;25;20001;-63
2024/04/15 13:35:35;;;;;;;22.13;2.25;;;;;;;;;;5496052;25;19993;-64
2024/04/15 13:38:02;;;;;;;22.35;2.35;;;;;;;;;;5498309;25;20004;-63
2024/04/15 13:40:28;;;;;;;9.32;1.42;;;;;;;;;;5490911;25;20013;-63
2024/04/15 13:42:54;;;;;;;14.48;1.38;;;;;;;;;;5513674;25;20013;-63
2024/04/15 13:45:21;;;;;;;16.20;2.13;;;;;;;;;;5519498;25;20017;-63
2024/04/15 13:47:47;;;;;;;11.40;1.88;;;;;;;;;;5515834;25;20001;-63
2024/04/15 13:50:15;;;;;;;7.10;1.13;;;;;;;;;;5520025;25;19992;-63
2024/04/15 13:52:41;;;;;;;7.20;1.27;;;;;;;;;;5513421;25;20016;-63
2024/04/15 13:55:08;;;;;;;9.55;1.80;;;;;;;;;;5499409;25;20001;-62
2024/04/15 13:57:34;;;;;;;8.25;1.90;;;;;;;;;;5490430;25;20468;-63
2024/04/15 14:00:01;;;;;;;6.85;1.10;;;;;;;;;;5493070;25;20008;-63
2024/04/15 14:02:28;;;;;;;9.05;1.42;;;;;;;;;;5506694;25;20005;-63
2024/04/15 14:04:54;;;;;;;6.88;0.98;;;;;;;;;;5500017;25;20449;-63
2024/04/15 14:07:20;;;;;;;6.50;1.30;;;;;;;;;;5517179;25;20157;-63
2024/04/15 14:09:47;;;;;;;7.88;1.13;;;;;;;;;;5522031;25;20081;-63
2024/04/15 14:12:13;;;;;;;11.80;2.60;;;;;;;;;;5518567;25;20016;-63
2024/04/15 14:14:39;;;;;;;8.02;1.33;;;;;;;;;;5521058;26;20074;-64
2024/04/15 14:17:09;;;;;;;8.23;1.13;;;;;;;;;;5522230;26;20349;-63
2024/04/15 14:19:35;;;;;;;8.10;2.60;;;;;;;;;;5521072;25;20016;-64
2024/04/15 14:22:02;;;;;;;10.50;1.65;;;;;;;;;;5522011;26;20013;-63
2024/04/15 14:24:28;;;;;;;10.18;2.22;;;;;;;;;;5512480;26;20017;-63
2024/04/15 14:26:55;;;;;;;10.35;1.23;;;;;;;;;;5520353;25;20013;-63
2024/04/15 14:29:21;;;;;;;9.48;1.58;;;;;;;;;;5514941;26;20020;-64
2024/04/15 14:31:48;;;;;;;7.32;1.27;;;;;;;;;;5521788;25;20014;-63